KNZY

North Island NAS / Halsey Field Airport

San Diego, California, USA
METAR KNZY 230452Z 31003KT 10SM FEW030 BKN250 18/14 A2989 RMK AO2 SLP122 T01780139 $
Observed Flight Rules
Oct-23 @ 04:52 UTC (26 minutes ago) Visual Flight Rules
Wind Visibility Clouds
310° at 3 knots 10 miles
  • Few at 3,000' AGL
  • Broken at 25,000' AGL
Temperatures Readings
Current 18°C / 64°F
Dewpoint 14°C / 57°F
Humidity 78%
Altimeter 29.89" Hg
Pressure 1012.2 hPa
Elevation 8
METAR KNZY 230452Z 31003KT 10SM FEW030 BKN250 18/14 A2989 RMK AO2 SLP122 T01780139 $
Observed Flight Rules
Oct-23 @ 04:52 UTC
(26 minutes ago)
VFR
Wind Visibility
310° at 3 knots 10 miles
Clouds
  • Few at 3,000' AGL
  • Broken at 25,000' AGL
Temperature Dewpoint
18°C / 64°F 14°C / 57°F
Humidity Altimeter Pressure
78% 29.89" Hg 1012.2 hPa